sensor_id;sensor_type;location;lat;lon;timestamp;P1;durP1;ratioP1;P2;durP2;ratioP2
48847;SDS011;36611;51.638;5.784;2023-04-16T00:01:36;0.82;;;0.50;;
48847;SDS011;36611;51.638;5.784;2023-04-16T00:04:02;1.55;;;0.70;;
48847;SDS011;36611;51.638;5.784;2023-04-16T00:06:29;0.30;;;0.20;;
48847;SDS011;36611;51.638;5.784;2023-04-16T00:08:57;0.60;;;0.22;;
48847;SDS011;36611;51.638;5.784;2023-04-16T00:11:23;1.17;;;0.40;;
48847;SDS011;36611;51.638;5.784;2023-04-16T00:13:50;1.05;;;0.40;;
48847;SDS011;36611;51.638;5.784;2023-04-16T00:16:17;0.70;;;0.43;;
48847;SDS011;36611;51.638;5.784;2023-04-16T00:18:43;0.47;;;0.25;;
48847;SDS011;36611;51.638;5.784;2023-04-16T00:21:10;1.67;;;0.65;;
48847;SDS011;36611;51.638;5.784;2023-04-16T00:23:37;0.55;;;0.50;;
48847;SDS011;36611;51.638;5.784;2023-04-16T00:26:04;0.68;;;0.40;;
48847;SDS011;36611;51.638;5.784;2023-04-16T00:28:30;1.30;;;0.57;;
48847;SDS011;36611;51.638;5.784;2023-04-16T00:30:57;0.85;;;0.50;;
48847;SDS011;36611;51.638;5.784;2023-04-16T00:33:27;0.98;;;0.40;;
48847;SDS011;36611;51.638;5.784;2023-04-16T00:35:55;0.80;;;0.43;;
48847;SDS011;36611;51.638;5.784;2023-04-16T00:38:22;0.73;;;0.32;;
48847;SDS011;36611;51.638;5.784;2023-04-16T00:40:48;1.67;;;0.52;;
48847;SDS011;36611;51.638;5.784;2023-04-16T00:43:24;0.68;;;0.50;;
48847;SDS011;36611;51.638;5.784;2023-04-16T00:45:52;0.60;;;0.30;;
48847;SDS011;36611;51.638;5.784;2023-04-16T00:48:21;1.30;;;0.30;;
48847;SDS011;36611;51.638;5.784;2023-04-16T00:50:49;0.88;;;0.40;;
48847;SDS011;36611;51.638;5.784;2023-04-16T00:53:15;0.40;;;0.30;;
48847;SDS011;36611;51.638;5.784;2023-04-16T00:55:42;1.13;;;0.35;;
48847;SDS011;36611;51.638;5.784;2023-04-16T00:58:09;0.88;;;0.40;;
48847;SDS011;36611;51.638;5.784;2023-04-16T01:00:36;0.40;;;0.20;;
48847;SDS011;36611;51.638;5.784;2023-04-16T01:03:02;0.70;;;0.32;;
48847;SDS011;36611;51.638;5.784;2023-04-16T01:05:30;0.52;;;0.40;;
48847;SDS011;36611;51.638;5.784;2023-04-16T01:07:57;0.75;;;0.30;;
48847;SDS011;36611;51.638;5.784;2023-04-16T01:10:26;0.50;;;0.35;;
48847;SDS011;36611;51.638;5.784;2023-04-16T01:12:52;1.17;;;0.70;;
48847;SDS011;36611;51.638;5.784;2023-04-16T01:15:19;0.63;;;0.30;;
48847;SDS011;36611;51.638;5.784;2023-04-16T01:17:45;0.73;;;0.30;;
48847;SDS011;36611;51.638;5.784;2023-04-16T01:20:12;0.60;;;0.30;;
48847;SDS011;36611;51.638;5.784;2023-04-16T01:22:39;1.10;;;0.40;;
48847;SDS011;36611;51.638;5.784;2023-04-16T01:25:05;1.10;;;0.40;;
48847;SDS011;36611;51.638;5.784;2023-04-16T01:27:32;1.60;;;0.55;;
48847;SDS011;36611;51.638;5.784;2023-04-16T01:29:59;0.68;;;0.30;;
48847;SDS011;36611;51.638;5.784;2023-04-16T01:32:37;1.25;;;0.40;;
48847;SDS011;36611;51.638;5.784;2023-04-16T01:35:04;0.57;;;0.40;;
48847;SDS011;36611;51.638;5.784;2023-04-16T01:37:31;1.13;;;0.40;;
48847;SDS011;36611;51.638;5.784;2023-04-16T01:39:57;1.15;;;0.52;;
48847;SDS011;36611;51.638;5.784;2023-04-16T01:42:24;0.40;;;0.20;;
48847;SDS011;36611;51.638;5.784;2023-04-16T01:44:51;0.65;;;0.40;;
48847;SDS011;36611;51.638;5.784;2023-04-16T01:47:17;0.82;;;0.35;;
48847;SDS011;36611;51.638;5.784;2023-04-16T01:49:44;0.70;;;0.30;;
48847;SDS011;36611;51.638;5.784;2023-04-16T01:52:13;0.70;;;0.30;;
48847;SDS011;36611;51.638;5.784;2023-04-16T01:54:39;2.17;;;0.52;;
48847;SDS011;36611;51.638;5.784;2023-04-16T01:57:07;0.95;;;0.40;;
48847;SDS011;36611;51.638;5.784;2023-04-16T01:59:33;0.73;;;0.32;;
48847;SDS011;36611;51.638;5.784;2023-04-16T02:02:01;0.75;;;0.40;;
48847;SDS011;36611;51.638;5.784;2023-04-16T02:04:41;0.65;;;0.30;;
48847;SDS011;36611;51.638;5.784;2023-04-16T02:07:11;0.85;;;0.40;;
48847;SDS011;36611;51.638;5.784;2023-04-16T02:09:38;0.57;;;0.40;;
48847;SDS011;36611;51.638;5.784;2023-04-16T02:12:06;0.52;;;0.30;;
48847;SDS011;36611;51.638;5.784;2023-04-16T02:14:34;1.08;;;0.50;;
48847;SDS011;36611;51.638;5.784;2023-04-16T02:17:01;0.80;;;0.28;;
48847;SDS011;36611;51.638;5.784;2023-04-16T02:19:49;0.50;;;0.25;;
48847;SDS011;36611;51.638;5.784;2023-04-16T02:22:16;0.65;;;0.40;;
48847;SDS011;36611;51.638;5.784;2023-04-16T02:24:42;0.70;;;0.32;;
48847;SDS011;36611;51.638;5.784;2023-04-16T02:27:09;0.65;;;0.38;;
48847;SDS011;36611;51.638;5.784;2023-04-16T02:29:37;0.60;;;0.22;;
48847;SDS011;36611;51.638;5.784;2023-04-16T02:32:10;1.42;;;0.70;;
48847;SDS011;36611;51.638;5.784;2023-04-16T02:34:40;0.85;;;0.30;;
48847;SDS011;36611;51.638;5.784;2023-04-16T02:37:10;0.85;;;0.60;;
48847;SDS011;36611;51.638;5.784;2023-04-16T02:39:36;1.10;;;0.50;;
48847;SDS011;36611;51.638;5.784;2023-04-16T02:42:03;1.20;;;0.50;;
48847;SDS011;36611;51.638;5.784;2023-04-16T02:44:29;1.00;;;0.43;;
48847;SDS011;36611;51.638;5.784;2023-04-16T02:46:56;0.95;;;0.43;;
48847;SDS011;36611;51.638;5.784;2023-04-16T02:49:22;0.80;;;0.40;;
48847;SDS011;36611;51.638;5.784;2023-04-16T02:51:49;0.80;;;0.40;;
48847;SDS011;36611;51.638;5.784;2023-04-16T02:54:15;0.90;;;0.52;;
48847;SDS011;36611;51.638;5.784;2023-04-16T02:56:42;0.88;;;0.40;;
48847;SDS011;36611;51.638;5.784;2023-04-16T02:59:09;0.68;;;0.30;;
48847;SDS011;36611;51.638;5.784;2023-04-16T03:01:35;0.60;;;0.40;;
48847;SDS011;36611;51.638;5.784;2023-04-16T03:04:02;0.57;;;0.38;;
48847;SDS011;36611;51.638;5.784;2023-04-16T03:06:29;0.60;;;0.40;;
48847;SDS011;36611;51.638;5.784;2023-04-16T03:08:56;1.10;;;0.40;;
48847;SDS011;36611;51.638;5.784;2023-04-16T03:11:23;0.47;;;0.30;;
48847;SDS011;36611;51.638;5.784;2023-04-16T03:13:49;1.08;;;0.35;;
48847;SDS011;36611;51.638;5.784;2023-04-16T03:16:16;1.33;;;0.47;;
48847;SDS011;36611;51.638;5.784;2023-04-16T03:18:43;0.80;;;0.40;;
48847;SDS011;36611;51.638;5.784;2023-04-16T03:21:09;0.50;;;0.40;;
48847;SDS011;36611;51.638;5.784;2023-04-16T03:23:36;1.42;;;0.63;;
48847;SDS011;36611;51.638;5.784;2023-04-16T03:26:03;1.10;;;0.52;;
48847;SDS011;36611;51.638;5.784;2023-04-16T03:28:29;1.05;;;0.55;;
48847;SDS011;36611;51.638;5.784;2023-04-16T03:30:56;1.20;;;0.50;;
48847;SDS011;36611;51.638;5.784;2023-04-16T03:33:23;0.40;;;0.30;;
48847;SDS011;36611;51.638;5.784;2023-04-16T03:35:55;0.75;;;0.40;;
48847;SDS011;36611;51.638;5.784;2023-04-16T03:38:24;1.13;;;0.60;;
48847;SDS011;36611;51.638;5.784;2023-04-16T03:40:54;1.20;;;0.70;;
48847;SDS011;36611;51.638;5.784;2023-04-16T03:43:20;0.80;;;0.50;;
48847;SDS011;36611;51.638;5.784;2023-04-16T03:45:47;0.90;;;0.50;;
48847;SDS011;36611;51.638;5.784;2023-04-16T03:48:15;0.90;;;0.50;;
48847;SDS011;36611;51.638;5.784;2023-04-16T03:50:45;0.60;;;0.40;;
48847;SDS011;36611;51.638;5.784;2023-04-16T03:53:15;1.25;;;0.57;;
48847;SDS011;36611;51.638;5.784;2023-04-16T03:55:41;0.60;;;0.40;;
48847;SDS011;36611;51.638;5.784;2023-04-16T03:58:09;0.55;;;0.40;;
48847;SDS011;36611;51.638;5.784;2023-04-16T04:00:35;2.17;;;0.50;;
48847;SDS011;36611;51.638;5.784;2023-04-16T04:03:09;1.08;;;0.60;;
48847;SDS011;36611;51.638;5.784;2023-04-16T04:05:38;1.10;;;0.65;;
48847;SDS011;36611;51.638;5.784;2023-04-16T04:08:10;0.75;;;0.40;;
48847;SDS011;36611;51.638;5.784;2023-04-16T04:10:37;1.77;;;0.50;;
48847;SDS011;36611;51.638;5.784;2023-04-16T04:13:05;1.00;;;0.50;;
48847;SDS011;36611;51.638;5.784;2023-04-16T04:15:33;0.80;;;0.40;;
48847;SDS011;36611;51.638;5.784;2023-04-16T04:17:59;1.60;;;0.47;;
48847;SDS011;36611;51.638;5.784;2023-04-16T04:20:26;1.33;;;0.60;;
48847;SDS011;36611;51.638;5.784;2023-04-16T04:22:53;0.68;;;0.40;;
48847;SDS011;36611;51.638;5.784;2023-04-16T04:25:23;1.30;;;0.50;;
48847;SDS011;36611;51.638;5.784;2023-04-16T04:27:49;1.52;;;0.60;;
48847;SDS011;36611;51.638;5.784;2023-04-16T04:30:16;0.80;;;0.40;;
48847;SDS011;36611;51.638;5.784;2023-04-16T04:32:43;0.77;;;0.50;;
48847;SDS011;36611;51.638;5.784;2023-04-16T04:35:09;1.13;;;0.70;;
48847;SDS011;36611;51.638;5.784;2023-04-16T04:37:36;1.10;;;0.60;;
48847;SDS011;36611;51.638;5.784;2023-04-16T04:42:37;0.85;;;0.50;;
48847;SDS011;36611;51.638;5.784;2023-04-16T04:45:04;1.38;;;0.60;;
48847;SDS011;36611;51.638;5.784;2023-04-16T04:47:32;1.00;;;0.60;;
48847;SDS011;36611;51.638;5.784;2023-04-16T04:49:59;1.00;;;0.60;;
48847;SDS011;36611;51.638;5.784;2023-04-16T04:52:26;1.10;;;0.65;;
48847;SDS011;36611;51.638;5.784;2023-04-16T04:54:53;2.17;;;0.85;;
48847;SDS011;36611;51.638;5.784;2023-04-16T04:57:19;1.13;;;0.70;;
48847;SDS011;36611;51.638;5.784;2023-04-16T04:59:49;1.30;;;0.55;;
48847;SDS011;36611;51.638;5.784;2023-04-16T05:02:16;1.35;;;0.70;;
48847;SDS011;36611;51.638;5.784;2023-04-16T05:04:42;1.90;;;0.90;;
48847;SDS011;36611;51.638;5.784;2023-04-16T05:07:09;0.95;;;0.60;;
48847;SDS011;36611;51.638;5.784;2023-04-16T05:09:36;0.73;;;0.60;;
48847;SDS011;36611;51.638;5.784;2023-04-16T05:12:02;1.95;;;0.60;;
48847;SDS011;36611;51.638;5.784;2023-04-16T05:14:29;1.42;;;0.77;;
48847;SDS011;36611;51.638;5.784;2023-04-16T05:16:55;1.15;;;0.85;;
48847;SDS011;36611;51.638;5.784;2023-04-16T05:19:22;1.63;;;0.70;;
48847;SDS011;36611;51.638;5.784;2023-04-16T05:21:49;1.75;;;0.63;;
48847;SDS011;36611;51.638;5.784;2023-04-16T05:24:15;2.10;;;1.02;;
48847;SDS011;36611;51.638;5.784;2023-04-16T05:26:42;1.40;;;0.60;;
48847;SDS011;36611;51.638;5.784;2023-04-16T05:29:08;1.88;;;0.90;;
48847;SDS011;36611;51.638;5.784;2023-04-16T05:31:35;1.40;;;0.68;;
48847;SDS011;36611;51.638;5.784;2023-04-16T05:34:01;1.05;;;0.68;;
48847;SDS011;36611;51.638;5.784;2023-04-16T05:36:28;1.27;;;0.70;;
48847;SDS011;36611;51.638;5.784;2023-04-16T05:38:55;1.85;;;0.80;;
48847;SDS011;36611;51.638;5.784;2023-04-16T05:41:21;1.20;;;0.75;;
48847;SDS011;36611;51.638;5.784;2023-04-16T05:43:48;1.00;;;0.73;;
48847;SDS011;36611;51.638;5.784;2023-04-16T05:46:14;0.88;;;0.70;;
48847;SDS011;36611;51.638;5.784;2023-04-16T05:48:41;1.40;;;0.93;;
48847;SDS011;36611;51.638;5.784;2023-04-16T05:51:08;1.30;;;0.90;;
48847;SDS011;36611;51.638;5.784;2023-04-16T05:53:34;1.67;;;0.70;;
48847;SDS011;36611;51.638;5.784;2023-04-16T05:56:01;2.08;;;0.82;;
48847;SDS011;36611;51.638;5.784;2023-04-16T05:58:27;1.77;;;0.95;;
48847;SDS011;36611;51.638;5.784;2023-04-16T06:00:54;1.33;;;0.80;;
48847;SDS011;36611;51.638;5.784;2023-04-16T06:03:20;1.85;;;1.00;;
48847;SDS011;36611;51.638;5.784;2023-04-16T06:05:47;2.10;;;0.80;;
48847;SDS011;36611;51.638;5.784;2023-04-16T06:08:14;1.35;;;0.60;;
48847;SDS011;36611;51.638;5.784;2023-04-16T06:10:40;1.35;;;1.00;;
48847;SDS011;36611;51.638;5.784;2023-04-16T06:13:07;1.75;;;1.00;;
48847;SDS011;36611;51.638;5.784;2023-04-16T06:15:33;1.98;;;1.00;;
48847;SDS011;36611;51.638;5.784;2023-04-16T06:18:00;1.27;;;0.82;;
48847;SDS011;36611;51.638;5.784;2023-04-16T06:20:27;2.03;;;0.88;;
48847;SDS011;36611;51.638;5.784;2023-04-16T06:22:54;2.92;;;1.00;;
48847;SDS011;36611;51.638;5.784;2023-04-16T06:25:21;1.00;;;0.77;;
48847;SDS011;36611;51.638;5.784;2023-04-16T06:27:47;1.92;;;1.20;;
48847;SDS011;36611;51.638;5.784;2023-04-16T06:30:14;1.95;;;1.05;;
48847;SDS011;36611;51.638;5.784;2023-04-16T06:32:41;1.35;;;0.93;;
48847;SDS011;36611;51.638;5.784;2023-04-16T06:35:08;1.48;;;0.95;;
48847;SDS011;36611;51.638;5.784;2023-04-16T06:37:35;1.58;;;1.00;;
48847;SDS011;36611;51.638;5.784;2023-04-16T06:40:01;2.28;;;1.00;;
48847;SDS011;36611;51.638;5.784;2023-04-16T06:42:28;1.52;;;1.02;;
48847;SDS011;36611;51.638;5.784;2023-04-16T06:44:55;4.25;;;1.27;;
48847;SDS011;36611;51.638;5.784;2023-04-16T06:47:21;1.50;;;1.00;;
48847;SDS011;36611;51.638;5.784;2023-04-16T06:49:48;1.55;;;1.00;;
48847;SDS011;36611;51.638;5.784;2023-04-16T06:52:14;1.42;;;1.15;;
48847;SDS011;36611;51.638;5.784;2023-04-16T06:54:41;3.08;;;1.08;;
48847;SDS011;36611;51.638;5.784;2023-04-16T06:57:07;1.67;;;0.90;;
48847;SDS011;36611;51.638;5.784;2023-04-16T06:59:34;1.83;;;1.13;;
48847;SDS011;36611;51.638;5.784;2023-04-16T07:02:01;2.17;;;1.10;;
48847;SDS011;36611;51.638;5.784;2023-04-16T07:04:27;2.50;;;1.13;;
48847;SDS011;36611;51.638;5.784;2023-04-16T07:06:54;3.08;;;1.35;;
48847;SDS011;36611;51.638;5.784;2023-04-16T07:09:21;2.65;;;1.00;;
48847;SDS011;36611;51.638;5.784;2023-04-16T07:11:47;2.08;;;1.02;;
48847;SDS011;36611;51.638;5.784;2023-04-16T07:14:14;2.20;;;1.20;;
48847;SDS011;36611;51.638;5.784;2023-04-16T07:16:41;2.67;;;1.15;;
48847;SDS011;36611;51.638;5.784;2023-04-16T07:19:07;1.65;;;1.23;;
48847;SDS011;36611;51.638;5.784;2023-04-16T07:21:34;2.28;;;1.20;;
48847;SDS011;36611;51.638;5.784;2023-04-16T07:24:01;1.77;;;0.93;;
48847;SDS011;36611;51.638;5.784;2023-04-16T07:26:28;1.70;;;1.30;;
48847;SDS011;36611;51.638;5.784;2023-04-16T07:28:54;2.40;;;1.15;;
48847;SDS011;36611;51.638;5.784;2023-04-16T07:31:21;1.90;;;1.25;;
48847;SDS011;36611;51.638;5.784;2023-04-16T07:33:47;2.22;;;1.05;;
48847;SDS011;36611;51.638;5.784;2023-04-16T07:36:14;1.70;;;1.05;;
48847;SDS011;36611;51.638;5.784;2023-04-16T07:38:41;2.03;;;1.50;;
48847;SDS011;36611;51.638;5.784;2023-04-16T07:41:07;2.08;;;1.30;;
48847;SDS011;36611;51.638;5.784;2023-04-16T07:43:34;2.10;;;1.35;;
48847;SDS011;36611;51.638;5.784;2023-04-16T07:46:00;2.65;;;1.60;;
48847;SDS011;36611;51.638;5.784;2023-04-16T07:48:27;2.13;;;1.42;;
48847;SDS011;36611;51.638;5.784;2023-04-16T07:50:53;2.63;;;1.42;;
48847;SDS011;36611;51.638;5.784;2023-04-16T07:53:20;2.45;;;1.25;;
48847;SDS011;36611;51.638;5.784;2023-04-16T07:55:47;2.08;;;1.20;;
48847;SDS011;36611;51.638;5.784;2023-04-16T07:58:13;2.05;;;1.38;;
48847;SDS011;36611;51.638;5.784;2023-04-16T08:00:40;2.45;;;1.38;;
48847;SDS011;36611;51.638;5.784;2023-04-16T08:03:07;1.75;;;1.30;;
48847;SDS011;36611;51.638;5.784;2023-04-16T08:05:33;5.72;;;1.58;;
48847;SDS011;36611;51.638;5.784;2023-04-16T08:08:00;3.58;;;1.27;;
48847;SDS011;36611;51.638;5.784;2023-04-16T08:10:27;1.90;;;1.20;;
48847;SDS011;36611;51.638;5.784;2023-04-16T08:12:53;1.52;;;1.05;;
48847;SDS011;36611;51.638;5.784;2023-04-16T08:15:20;2.28;;;1.40;;
48847;SDS011;36611;51.638;5.784;2023-04-16T08:17:46;2.50;;;1.40;;
48847;SDS011;36611;51.638;5.784;2023-04-16T08:20:13;1.83;;;1.33;;
48847;SDS011;36611;51.638;5.784;2023-04-16T08:22:44;3.53;;;1.50;;
48847;SDS011;36611;51.638;5.784;2023-04-16T08:25:11;2.72;;;1.48;;
48847;SDS011;36611;51.638;5.784;2023-04-16T08:27:37;2.95;;;1.40;;
48847;SDS011;36611;51.638;5.784;2023-04-16T08:30:04;1.77;;;1.35;;
48847;SDS011;36611;51.638;5.784;2023-04-16T08:32:31;3.08;;;1.30;;
48847;SDS011;36611;51.638;5.784;2023-04-16T08:34:58;1.95;;;1.33;;
48847;SDS011;36611;51.638;5.784;2023-04-16T08:37:25;2.30;;;1.30;;
48847;SDS011;36611;51.638;5.784;2023-04-16T08:39:51;2.83;;;1.48;;
48847;SDS011;36611;51.638;5.784;2023-04-16T08:42:44;2.63;;;1.60;;
48847;SDS011;36611;51.638;5.784;2023-04-16T08:45:18;2.90;;;1.52;;
48847;SDS011;36611;51.638;5.784;2023-04-16T08:47:46;3.70;;;1.63;;
48847;SDS011;36611;51.638;5.784;2023-04-16T08:50:14;2.20;;;1.20;;
48847;SDS011;36611;51.638;5.784;2023-04-16T08:52:44;3.03;;;1.75;;
48847;SDS011;36611;51.638;5.784;2023-04-16T08:55:15;2.08;;;1.20;;
48847;SDS011;36611;51.638;5.784;2023-04-16T08:57:46;2.20;;;1.55;;
48847;SDS011;36611;51.638;5.784;2023-04-16T09:00:15;2.35;;;1.40;;
48847;SDS011;36611;51.638;5.784;2023-04-16T09:02:43;2.47;;;1.65;;
48847;SDS011;36611;51.638;5.784;2023-04-16T09:05:11;2.40;;;1.30;;
48847;SDS011;36611;51.638;5.784;2023-04-16T09:07:45;2.72;;;1.30;;
48847;SDS011;36611;51.638;5.784;2023-04-16T09:10:13;2.10;;;1.63;;
48847;SDS011;36611;51.638;5.784;2023-04-16T09:12:40;2.40;;;1.30;;
48847;SDS011;36611;51.638;5.784;2023-04-16T09:15:11;1.77;;;1.35;;
48847;SDS011;36611;51.638;5.784;2023-04-16T09:17:39;1.75;;;1.42;;
48847;SDS011;36611;51.638;5.784;2023-04-16T09:20:06;1.70;;;1.40;;
48847;SDS011;36611;51.638;5.784;2023-04-16T09:22:34;2.58;;;1.60;;
48847;SDS011;36611;51.638;5.784;2023-04-16T09:25:01;2.47;;;1.75;;
48847;SDS011;36611;51.638;5.784;2023-04-16T09:27:29;1.63;;;1.30;;
48847;SDS011;36611;51.638;5.784;2023-04-16T09:29:56;1.77;;;1.38;;
48847;SDS011;36611;51.638;5.784;2023-04-16T09:32:23;3.08;;;1.50;;
48847;SDS011;36611;51.638;5.784;2023-04-16T09:37:23;1.63;;;1.40;;
48847;SDS011;36611;51.638;5.784;2023-04-16T09:39:57;4.00;;;1.50;;
48847;SDS011;36611;51.638;5.784;2023-04-16T09:42:29;2.08;;;1.58;;
48847;SDS011;36611;51.638;5.784;2023-04-16T09:44:58;3.88;;;1.77;;
48847;SDS011;36611;51.638;5.784;2023-04-16T09:47:38;2.50;;;1.48;;
48847;SDS011;36611;51.638;5.784;2023-04-16T09:50:10;1.80;;;1.50;;
48847;SDS011;36611;51.638;5.784;2023-04-16T09:52:44;2.28;;;1.50;;
48847;SDS011;36611;51.638;5.784;2023-04-16T09:55:13;2.33;;;1.60;;
48847;SDS011;36611;51.638;5.784;2023-04-16T09:57:39;2.85;;;1.60;;
48847;SDS011;36611;51.638;5.784;2023-04-16T10:00:07;2.00;;;1.70;;
48847;SDS011;36611;51.638;5.784;2023-04-16T10:02:35;2.50;;;1.55;;
48847;SDS011;36611;51.638;5.784;2023-04-16T10:05:07;2.47;;;1.95;;
48847;SDS011;36611;51.638;5.784;2023-04-16T10:07:34;2.88;;;1.40;;
48847;SDS011;36611;51.638;5.784;2023-04-16T10:10:02;2.15;;;1.70;;
48847;SDS011;36611;51.638;5.784;2023-04-16T10:12:30;1.90;;;1.40;;
48847;SDS011;36611;51.638;5.784;2023-04-16T10:14:58;1.80;;;1.30;;
48847;SDS011;36611;51.638;5.784;2023-04-16T10:17:25;2.13;;;1.50;;
48847;SDS011;36611;51.638;5.784;2023-04-16T10:19:52;2.55;;;1.50;;
48847;SDS011;36611;51.638;5.784;2023-04-16T10:22:19;2.42;;;1.45;;
48847;SDS011;36611;51.638;5.784;2023-04-16T10:24:46;2.13;;;1.60;;
48847;SDS011;36611;51.638;5.784;2023-04-16T10:27:14;2.47;;;1.80;;
48847;SDS011;36611;51.638;5.784;2023-04-16T10:29:42;2.40;;;1.73;;
48847;SDS011;36611;51.638;5.784;2023-04-16T10:32:09;2.42;;;1.30;;
48847;SDS011;36611;51.638;5.784;2023-04-16T10:34:36;2.10;;;1.50;;
48847;SDS011;36611;51.638;5.784;2023-04-16T10:37:04;2.53;;;1.60;;
48847;SDS011;36611;51.638;5.784;2023-04-16T10:39:30;3.08;;;1.60;;
48847;SDS011;36611;51.638;5.784;2023-04-16T10:42:09;1.83;;;1.50;;
48847;SDS011;36611;51.638;5.784;2023-04-16T10:44:38;2.05;;;1.70;;
48847;SDS011;36611;51.638;5.784;2023-04-16T10:47:09;2.08;;;1.60;;
48847;SDS011;36611;51.638;5.784;2023-04-16T10:49:37;1.80;;;1.40;;
48847;SDS011;36611;51.638;5.784;2023-04-16T10:52:14;2.75;;;1.88;;
48847;SDS011;36611;51.638;5.784;2023-04-16T10:54:45;1.77;;;1.42;;
48847;SDS011;36611;51.638;5.784;2023-04-16T10:57:14;2.03;;;1.70;;
48847;SDS011;36611;51.638;5.784;2023-04-16T10:59:43;3.72;;;1.80;;
48847;SDS011;36611;51.638;5.784;2023-04-16T11:02:14;2.15;;;1.60;;
48847;SDS011;36611;51.638;5.784;2023-04-16T11:04:46;2.33;;;1.75;;
48847;SDS011;36611;51.638;5.784;2023-04-16T11:07:16;2.42;;;1.70;;
48847;SDS011;36611;51.638;5.784;2023-04-16T11:12:16;2.60;;;1.90;;
48847;SDS011;36611;51.638;5.784;2023-04-16T11:14:49;2.67;;;1.80;;
48847;SDS011;36611;51.638;5.784;2023-04-16T11:17:19;2.72;;;1.73;;
48847;SDS011;36611;51.638;5.784;2023-04-16T11:19:46;3.53;;;2.00;;
48847;SDS011;36611;51.638;5.784;2023-04-16T11:22:14;2.47;;;1.60;;
48847;SDS011;36611;51.638;5.784;2023-04-16T11:24:43;2.55;;;1.75;;
48847;SDS011;36611;51.638;5.784;2023-04-16T11:27:13;2.72;;;1.90;;
48847;SDS011;36611;51.638;5.784;2023-04-16T11:29:40;2.28;;;1.70;;
48847;SDS011;36611;51.638;5.784;2023-04-16T11:32:07;2.67;;;1.80;;
48847;SDS011;36611;51.638;5.784;2023-04-16T11:34:41;2.60;;;1.92;;
48847;SDS011;36611;51.638;5.784;2023-04-16T11:37:09;2.58;;;1.55;;
48847;SDS011;36611;51.638;5.784;2023-04-16T11:39:46;3.25;;;2.00;;
48847;SDS011;36611;51.638;5.784;2023-04-16T11:42:18;2.75;;;1.85;;
48847;SDS011;36611;51.638;5.784;2023-04-16T11:44:46;5.07;;;1.63;;
48847;SDS011;36611;51.638;5.784;2023-04-16T11:47:17;3.00;;;2.00;;
48847;SDS011;36611;51.638;5.784;2023-04-16T11:49:44;2.90;;;1.70;;
48847;SDS011;36611;51.638;5.784;2023-04-16T11:52:11;2.35;;;1.90;;
48847;SDS011;36611;51.638;5.784;2023-04-16T11:54:37;3.55;;;2.17;;
48847;SDS011;36611;51.638;5.784;2023-04-16T11:57:04;3.80;;;1.73;;
48847;SDS011;36611;51.638;5.784;2023-04-16T11:59:30;2.25;;;1.45;;
48847;SDS011;36611;51.638;5.784;2023-04-16T12:01:58;2.70;;;1.83;;
48847;SDS011;36611;51.638;5.784;2023-04-16T12:04:25;2.50;;;1.80;;
48847;SDS011;36611;51.638;5.784;2023-04-16T12:07:09;3.17;;;1.90;;
48847;SDS011;36611;51.638;5.784;2023-04-16T12:09:36;2.85;;;1.85;;
48847;SDS011;36611;51.638;5.784;2023-04-16T12:12:23;3.55;;;2.28;;
48847;SDS011;36611;51.638;5.784;2023-04-16T12:14:56;2.28;;;1.95;;
48847;SDS011;36611;51.638;5.784;2023-04-16T12:17:25;3.00;;;2.05;;
48847;SDS011;36611;51.638;5.784;2023-04-16T12:19:55;2.72;;;1.95;;
48847;SDS011;36611;51.638;5.784;2023-04-16T12:22:30;2.83;;;2.08;;
48847;SDS011;36611;51.638;5.784;2023-04-16T12:25:20;1.73;;;1.58;;
48847;SDS011;36611;51.638;5.784;2023-04-16T12:27:50;2.67;;;1.92;;
48847;SDS011;36611;51.638;5.784;2023-04-16T12:30:20;2.47;;;1.92;;
48847;SDS011;36611;51.638;5.784;2023-04-16T12:32:48;5.07;;;1.98;;
48847;SDS011;36611;51.638;5.784;2023-04-16T12:35:30;2.63;;;2.22;;
48847;SDS011;36611;51.638;5.784;2023-04-16T12:37:58;2.80;;;2.08;;
48847;SDS011;36611;51.638;5.784;2023-04-16T12:40:25;2.35;;;1.90;;
48847;SDS011;36611;51.638;5.784;2023-04-16T12:42:52;2.83;;;1.80;;
48847;SDS011;36611;51.638;5.784;2023-04-16T12:45:18;2.47;;;2.05;;
48847;SDS011;36611;51.638;5.784;2023-04-16T12:47:46;1.80;;;1.65;;
48847;SDS011;36611;51.638;5.784;2023-04-16T12:50:12;3.00;;;2.10;;
48847;SDS011;36611;51.638;5.784;2023-04-16T12:52:39;2.75;;;1.98;;
48847;SDS011;36611;51.638;5.784;2023-04-16T12:55:05;2.35;;;1.88;;
48847;SDS011;36611;51.638;5.784;2023-04-16T12:57:32;3.38;;;2.47;;
48847;SDS011;36611;51.638;5.784;2023-04-16T12:59:59;2.85;;;2.20;;
48847;SDS011;36611;51.638;5.784;2023-04-16T13:02:26;3.83;;;2.28;;
48847;SDS011;36611;51.638;5.784;2023-04-16T13:04:52;3.80;;;2.47;;
48847;SDS011;36611;51.638;5.784;2023-04-16T13:07:19;3.28;;;2.33;;
48847;SDS011;36611;51.638;5.784;2023-04-16T13:09:46;3.38;;;2.20;;
48847;SDS011;36611;51.638;5.784;2023-04-16T13:12:13;3.65;;;2.33;;
48847;SDS011;36611;51.638;5.784;2023-04-16T13:14:39;3.08;;;2.38;;
48847;SDS011;36611;51.638;5.784;2023-04-16T13:17:09;5.80;;;2.35;;
48847;SDS011;36611;51.638;5.784;2023-04-16T13:19:36;5.88;;;2.47;;
48847;SDS011;36611;51.638;5.784;2023-04-16T13:22:02;3.25;;;2.25;;
48847;SDS011;36611;51.638;5.784;2023-04-16T13:24:29;2.92;;;2.35;;
48847;SDS011;36611;51.638;5.784;2023-04-16T13:26:56;4.82;;;2.30;;
48847;SDS011;36611;51.638;5.784;2023-04-16T13:29:22;4.22;;;2.22;;
48847;SDS011;36611;51.638;5.784;2023-04-16T13:31:49;4.30;;;2.42;;
48847;SDS011;36611;51.638;5.784;2023-04-16T13:34:15;2.90;;;1.98;;
48847;SDS011;36611;51.638;5.784;2023-04-16T13:36:42;3.25;;;2.40;;
48847;SDS011;36611;51.638;5.784;2023-04-16T13:39:09;2.90;;;2.38;;
48847;SDS011;36611;51.638;5.784;2023-04-16T13:41:38;3.25;;;2.15;;
48847;SDS011;36611;51.638;5.784;2023-04-16T13:44:05;4.35;;;2.50;;
48847;SDS011;36611;51.638;5.784;2023-04-16T13:46:32;3.22;;;2.20;;
48847;SDS011;36611;51.638;5.784;2023-04-16T13:48:58;2.83;;;2.10;;
48847;SDS011;36611;51.638;5.784;2023-04-16T13:51:25;2.50;;;1.90;;
48847;SDS011;36611;51.638;5.784;2023-04-16T13:53:53;2.80;;;2.15;;
48847;SDS011;36611;51.638;5.784;2023-04-16T13:56:21;3.00;;;2.50;;
48847;SDS011;36611;51.638;5.784;2023-04-16T13:58:47;2.80;;;2.13;;
48847;SDS011;36611;51.638;5.784;2023-04-16T14:01:14;5.10;;;2.80;;
48847;SDS011;36611;51.638;5.784;2023-04-16T14:03:42;2.63;;;2.10;;
48847;SDS011;36611;51.638;5.784;2023-04-16T14:06:09;2.50;;;2.10;;
48847;SDS011;36611;51.638;5.784;2023-04-16T14:08:35;3.65;;;2.45;;
48847;SDS011;36611;51.638;5.784;2023-04-16T14:11:03;2.90;;;2.22;;
48847;SDS011;36611;51.638;5.784;2023-04-16T14:13:31;2.60;;;2.10;;
48847;SDS011;36611;51.638;5.784;2023-04-16T14:15:58;2.33;;;2.13;;
48847;SDS011;36611;51.638;5.784;2023-04-16T14:18:25;3.33;;;2.50;;
48847;SDS011;36611;51.638;5.784;2023-04-16T14:20:51;3.72;;;2.28;;
48847;SDS011;36611;51.638;5.784;2023-04-16T14:23:18;3.90;;;2.80;;
48847;SDS011;36611;51.638;5.784;2023-04-16T14:25:44;3.03;;;2.25;;
48847;SDS011;36611;51.638;5.784;2023-04-16T14:28:11;3.55;;;2.50;;
48847;SDS011;36611;51.638;5.784;2023-04-16T14:30:40;2.72;;;2.17;;
48847;SDS011;36611;51.638;5.784;2023-04-16T14:33:07;3.45;;;2.50;;
48847;SDS011;36611;51.638;5.784;2023-04-16T14:35:33;4.30;;;2.63;;
48847;SDS011;36611;51.638;5.784;2023-04-16T14:38:01;2.90;;;2.40;;
48847;SDS011;36611;51.638;5.784;2023-04-16T14:40:28;3.13;;;2.20;;
48847;SDS011;36611;51.638;5.784;2023-04-16T14:42:54;3.45;;;2.47;;
48847;SDS011;36611;51.638;5.784;2023-04-16T14:45:21;3.60;;;2.33;;
48847;SDS011;36611;51.638;5.784;2023-04-16T14:47:48;3.13;;;2.35;;
48847;SDS011;36611;51.638;5.784;2023-04-16T14:50:16;2.85;;;2.33;;
48847;SDS011;36611;51.638;5.784;2023-04-16T14:52:42;3.28;;;2.58;;
48847;SDS011;36611;51.638;5.784;2023-04-16T14:55:09;2.78;;;2.40;;
48847;SDS011;36611;51.638;5.784;2023-04-16T14:57:35;3.55;;;2.40;;
48847;SDS011;36611;51.638;5.784;2023-04-16T15:00:04;3.50;;;2.58;;